Auburn, ME (04210)

20:05 EDT le 28 août 2016 (GMT -0400)
KMEAUBUR5 | | Change Station

Alt. 364 ft 44.09 °N, 70.25 °W | Updated 26 seconds ago

Clear
Ciel dégagé
67.4 ° F
Paraît 67.4 ° F
N
0.0
Vent Variable Vent de SSO
Gusts 8.0 mph

Aujourd'hui
Haut(e) -- | Bas -- ° F
--% Risque de précip.
Hier
Haut(e) -- | Bas -- ° F
Precip. -- pouce
Pression 30.20 pouce
Visibilité 10.0 Miles terrestres
Nuages Ciel dégagé
Point de rosée 67 ° F
Humidité 100%
Précipitations Non disponible.
Profondeur de la couche neigeuse Non disponible.
6:00 AM 7:23 PM
Lune descendante, 12% visible
METAR KLEW 282356Z AUTO 16008KT 10SM CLR 20/17 A3016 RMK AO2 SLP225 T02000167 10256 20200 55005
Pression 30.20 pouce
Visibilité 10.0 Miles terrestres
Nuages Ciel dégagé
Point de rosée 67 ° F
Humidité 100%
Précipitations Non disponible.
Profondeur de la couche neigeuse Non disponible.
6:00 AM 7:23 PM
Lune descendante, 12% visible
METAR KLEW 282356Z AUTO 16008KT 10SM CLR 20/17 A3016 RMK AO2 SLP225 T02000167 10256 20200 55005

10-Day Weather Forecast

Almanac

Astronomie

Aug. 28, 2016 Lever Coucher
Temps réel
Crépuscule civil
Crépuscule nautique
Crépuscule astronomique
Lune
Durée de lumière visible
Longueur du jour
Tomorrow will be .
, % of the Moon is Illuminated

Extrêmes aujourd'hui

State Highs State Lows

Community

WunderPhotos

Upload Photos

1,935,726 Photos téléchargées !

WunderBlog® & News

Nearby

Qualité de l'air

  Qualité de l'air Indice de la qualité de l'air Polluant
Not available.

Épaisseur de neige

Station Depth Altitude

Activité sismique

Ville Distance Mag. Time & Date
Minimum magnitude displayed is 2.5.

Températures des eaux côtières

Lieu Température

Stations

Stations météo à proximité

Emplacement de la station Température Refroidissement éolien Point de rosée Humidité Vent Precip. Alt. Mise à jour Type
                   

Watches & Warnings

There are currently no watches in effect.